Time;durP1;ratioP1;P1;durP2;ratioP2;P2;SDS_P1;SDS_P2;PMS_P1;PMS_P2;Temp;Humidity;BMP_temperature;BMP_pressure;BME280_temperature;BME280_humidity;BME280_pressure;Samples;Min_cycle;Max_cycle;Signal;HPM_P1;HPM_P2
2023/08/11 00:01:38;;;;;;;8.52;5.10;;;;;;;;;;5029113;28;20245;-59
2023/08/11 00:04:03;;;;;;;7.40;4.75;;;;;;;;;;5028256;28;20216;-59
2023/08/11 00:06:30;;;;;;;10.05;5.20;;;;;;;;;;5030637;28;20216;-59
2023/08/11 00:08:55;;;;;;;7.00;4.80;;;;;;;;;;5030104;28;20269;-59
2023/08/11 00:11:22;;;;;;;8.20;4.68;;;;;;;;;;5027260;28;20225;-59
2023/08/11 00:13:47;;;;;;;9.07;4.63;;;;;;;;;;5029999;28;20277;-59
2023/08/11 00:16:13;;;;;;;7.10;4.22;;;;;;;;;;5029651;28;20581;-59
2023/08/11 00:18:40;;;;;;;8.82;5.13;;;;;;;;;;5027553;28;20220;-59
2023/08/11 00:21:05;;;;;;;6.93;4.88;;;;;;;;;;5027457;28;20685;-60
2023/08/11 00:23:30;;;;;;;8.07;4.90;;;;;;;;;;5029997;28;20311;-59
2023/08/11 00:25:55;;;;;;;9.85;5.15;;;;;;;;;;5028407;28;20203;-59
2023/08/11 00:28:21;;;;;;;7.57;4.85;;;;;;;;;;5028178;28;20582;-59
2023/08/11 00:30:46;;;;;;;9.95;4.95;;;;;;;;;;5029654;28;20242;-59
2023/08/11 00:33:11;;;;;;;7.47;4.70;;;;;;;;;;5029004;28;20705;-59
2023/08/11 00:35:37;;;;;;;7.43;4.30;;;;;;;;;;5027344;28;20581;-59
2023/08/11 00:38:02;;;;;;;12.50;5.22;;;;;;;;;;5029451;28;20573;-59
2023/08/11 00:40:27;;;;;;;8.93;5.00;;;;;;;;;;5028957;28;20663;-59
2023/08/11 00:42:53;;;;;;;7.35;4.82;;;;;;;;;;5028092;28;20212;-59
2023/08/11 00:45:18;;;;;;;6.07;4.75;;;;;;;;;;5028322;28;20578;-59
2023/08/11 00:47:44;;;;;;;8.73;4.70;;;;;;;;;;5028336;28;20211;-59
2023/08/11 00:50:11;;;;;;;8.85;4.93;;;;;;;;;;5028105;28;20215;-59
2023/08/11 00:52:36;;;;;;;8.90;4.80;;;;;;;;;;5026543;28;21228;-59
2023/08/11 00:55:02;;;;;;;10.27;4.70;;;;;;;;;;5027036;28;20208;-60
2023/08/11 00:57:27;;;;;;;8.48;4.88;;;;;;;;;;5029396;28;20649;-59
2023/08/11 00:59:53;;;;;;;7.55;4.93;;;;;;;;;;5026985;28;20220;-59
2023/08/11 01:02:18;;;;;;;7.28;4.47;;;;;;;;;;5027946;28;20222;-59
2023/08/11 01:04:43;;;;;;;7.10;4.60;;;;;;;;;;5029267;28;20208;-59
2023/08/11 01:07:17;;;;;;;8.82;4.78;;;;;;;;;;5026642;28;20200;-59
2023/08/11 01:09:53;;;;;;;5.72;4.53;;;;;;;;;;5026342;28;20215;-59
2023/08/11 01:12:27;;;;;;;9.05;4.75;;;;;;;;;;5028727;28;20211;-59
2023/08/11 01:14:59;;;;;;;7.70;4.90;;;;;;;;;;5026775;28;20220;-59
2023/08/11 01:17:24;;;;;;;7.40;5.07;;;;;;;;;;5025723;28;20701;-59
2023/08/11 01:19:49;;;;;;;9.55;4.97;;;;;;;;;;5028080;28;20232;-59
2023/08/11 01:22:15;;;;;;;7.88;5.03;;;;;;;;;;5027896;28;20226;-59
2023/08/11 01:24:42;;;;;;;8.15;5.00;;;;;;;;;;5026780;28;20208;-59
2023/08/11 01:27:08;;;;;;;8.50;4.43;;;;;;;;;;5025249;28;20216;-60
2023/08/11 01:29:33;;;;;;;7.20;4.53;;;;;;;;;;5028010;28;20318;-59
2023/08/11 01:31:58;;;;;;;9.45;5.40;;;;;;;;;;5027825;28;20318;-59
2023/08/11 01:34:24;;;;;;;6.95;5.25;;;;;;;;;;5025758;28;20277;-59
2023/08/11 01:36:50;;;;;;;8.48;4.78;;;;;;;;;;5027435;28;20289;-59
2023/08/11 01:39:15;;;;;;;10.02;5.13;;;;;;;;;;5028197;28;20569;-59
2023/08/11 01:41:40;;;;;;;9.82;4.55;;;;;;;;;;5027238;28;20206;-59
2023/08/11 01:44:06;;;;;;;9.50;5.20;;;;;;;;;;5024994;28;20212;-59
2023/08/11 01:46:31;;;;;;;11.88;5.32;;;;;;;;;;5027397;28;20314;-59
2023/08/11 01:48:57;;;;;;;9.40;5.35;;;;;;;;;;5028012;28;20222;-59
2023/08/11 01:51:23;;;;;;;11.40;5.10;;;;;;;;;;5026984;28;20235;-59
2023/08/11 01:53:48;;;;;;;7.80;4.75;;;;;;;;;;5031879;28;20683;-59
2023/08/11 01:56:14;;;;;;;6.70;5.03;;;;;;;;;;5029139;28;20212;-59
2023/08/11 01:58:39;;;;;;;8.85;5.07;;;;;;;;;;5029802;28;20215;-59
2023/08/11 02:01:05;;;;;;;7.30;4.70;;;;;;;;;;5030672;28;20247;-60
2023/08/11 02:03:30;;;;;;;7.43;4.70;;;;;;;;;;5030335;28;20263;-59
2023/08/11 02:05:55;;;;;;;7.97;4.45;;;;;;;;;;5031152;28;20318;-59
2023/08/11 02:08:21;;;;;;;7.88;4.68;;;;;;;;;;5030749;28;20213;-59
2023/08/11 02:10:46;;;;;;;6.22;4.70;;;;;;;;;;5030212;28;20327;-59
2023/08/11 02:13:12;;;;;;;8.00;4.35;;;;;;;;;;5030604;28;20211;-59
2023/08/11 02:15:37;;;;;;;8.40;4.55;;;;;;;;;;5031079;28;20211;-59
2023/08/11 02:18:03;;;;;;;7.10;4.50;;;;;;;;;;5029565;28;20239;-59
2023/08/11 02:20:29;;;;;;;6.90;5.18;;;;;;;;;;5030942;28;20266;-59
2023/08/11 02:22:55;;;;;;;8.15;5.00;;;;;;;;;;5031143;28;20208;-59
2023/08/11 02:25:22;;;;;;;8.25;5.35;;;;;;;;;;5029911;28;20221;-59
2023/08/11 02:27:47;;;;;;;8.27;5.63;;;;;;;;;;5031214;28;20216;-59
2023/08/11 02:30:13;;;;;;;7.43;5.22;;;;;;;;;;5030279;28;20578;-60
2023/08/11 02:32:39;;;;;;;11.07;5.90;;;;;;;;;;5030058;28;20732;-59
2023/08/11 02:35:05;;;;;;;9.73;5.90;;;;;;;;;;5030207;28;20282;-59
2023/08/11 02:37:30;;;;;;;9.70;5.43;;;;;;;;;;5030880;28;20722;-59
2023/08/11 02:39:55;;;;;;;8.13;5.47;;;;;;;;;;5029245;28;20223;-59
2023/08/11 02:42:21;;;;;;;9.55;5.75;;;;;;;;;;5025331;28;20218;-59
2023/08/11 02:44:46;;;;;;;7.72;5.40;;;;;;;;;;5031926;28;20212;-59
2023/08/11 02:47:11;;;;;;;7.22;4.65;;;;;;;;;;5030437;28;20204;-59
2023/08/11 02:49:37;;;;;;;10.48;5.53;;;;;;;;;;5029532;28;20219;-59
2023/08/11 02:52:02;;;;;;;10.25;5.03;;;;;;;;;;5030866;28;20561;-60
2023/08/11 02:54:28;;;;;;;7.20;5.57;;;;;;;;;;5031095;28;20235;-59
2023/08/11 02:56:53;;;;;;;8.30;5.88;;;;;;;;;;5030150;28;20208;-59
2023/08/11 02:59:18;;;;;;;10.20;6.03;;;;;;;;;;5030517;28;20220;-59
2023/08/11 03:01:44;;;;;;;10.27;6.05;;;;;;;;;;5030684;28;20204;-59
2023/08/11 03:04:10;;;;;;;9.88;5.90;;;;;;;;;;5030139;28;20215;-59
2023/08/11 03:06:35;;;;;;;10.57;6.20;;;;;;;;;;5029299;28;20291;-59
2023/08/11 03:09:00;;;;;;;7.40;5.30;;;;;;;;;;5031215;28;21011;-60
2023/08/11 03:11:26;;;;;;;6.82;5.20;;;;;;;;;;5031600;28;20627;-60
2023/08/11 03:13:51;;;;;;;9.40;5.40;;;;;;;;;;5028072;28;20211;-59
2023/08/11 03:16:16;;;;;;;7.18;5.65;;;;;;;;;;5030761;28;20256;-59
2023/08/11 03:18:41;;;;;;;9.63;6.00;;;;;;;;;;5031257;28;20243;-59
2023/08/11 03:21:07;;;;;;;8.07;6.50;;;;;;;;;;5028623;28;20216;-60
2023/08/11 03:23:33;;;;;;;10.35;7.00;;;;;;;;;;5030545;28;20218;-59
2023/08/11 03:25:59;;;;;;;9.13;6.95;;;;;;;;;;5031175;28;20346;-59
2023/08/11 03:28:24;;;;;;;8.25;6.70;;;;;;;;;;5029493;28;20231;-59
2023/08/11 03:30:49;;;;;;;10.32;6.85;;;;;;;;;;5028955;28;20709;-59
2023/08/11 03:33:15;;;;;;;10.23;6.43;;;;;;;;;;5030428;28;20683;-59
2023/08/11 03:35:40;;;;;;;11.48;6.15;;;;;;;;;;5030123;28;20224;-59
2023/08/11 03:38:05;;;;;;;8.40;5.85;;;;;;;;;;5028316;28;20661;-59
2023/08/11 03:40:32;;;;;;;13.38;6.50;;;;;;;;;;5030852;28;20212;-59
2023/08/11 03:42:57;;;;;;;9.73;7.57;;;;;;;;;;5030094;28;20220;-59
2023/08/11 03:45:22;;;;;;;10.73;7.32;;;;;;;;;;5029357;28;20223;-59
2023/08/11 03:47:48;;;;;;;12.07;6.82;;;;;;;;;;5029523;28;20622;-59
2023/08/11 03:50:13;;;;;;;8.68;6.28;;;;;;;;;;5029293;28;20676;-59
2023/08/11 03:52:39;;;;;;;10.65;6.63;;;;;;;;;;5030585;28;20216;-59
2023/08/11 03:55:04;;;;;;;9.73;6.80;;;;;;;;;;5027315;28;20212;-59
2023/08/11 03:57:30;;;;;;;9.38;6.93;;;;;;;;;;5024304;28;20643;-59
2023/08/11 03:59:56;;;;;;;10.63;7.45;;;;;;;;;;5030760;28;20228;-59
2023/08/11 04:02:21;;;;;;;9.88;7.40;;;;;;;;;;5028007;28;20212;-59
2023/08/11 04:04:46;;;;;;;9.55;6.95;;;;;;;;;;5029214;28;20242;-59
2023/08/11 04:07:12;;;;;;;10.82;8.10;;;;;;;;;;5029838;28;20208;-60
2023/08/11 04:09:43;;;;;;;13.48;7.88;;;;;;;;;;5029591;28;20270;-59
2023/08/11 04:12:08;;;;;;;11.90;8.43;;;;;;;;;;5027079;28;20714;-59
2023/08/11 04:14:34;;;;;;;11.13;7.60;;;;;;;;;;5030367;28;21185;-59
2023/08/11 04:16:59;;;;;;;11.25;7.45;;;;;;;;;;5029595;28;20211;-59
2023/08/11 04:19:24;;;;;;;10.95;7.20;;;;;;;;;;5027177;28;20322;-60
2023/08/11 04:21:50;;;;;;;13.00;7.38;;;;;;;;;;5030099;28;20706;-59
2023/08/11 04:24:17;;;;;;;12.38;8.25;;;;;;;;;;5028740;28;20820;-60
2023/08/11 04:26:43;;;;;;;10.77;7.95;;;;;;;;;;5028686;28;20204;-59
2023/08/11 04:29:08;;;;;;;10.93;7.63;;;;;;;;;;5028650;28;20256;-60
2023/08/11 04:31:34;;;;;;;10.90;7.68;;;;;;;;;;5029102;28;20219;-60
2023/08/11 04:33:59;;;;;;;12.40;8.07;;;;;;;;;;5029528;28;20581;-59
2023/08/11 04:36:25;;;;;;;14.23;7.53;;;;;;;;;;5026946;28;20212;-59
2023/08/11 04:38:50;;;;;;;10.07;8.25;;;;;;;;;;5029185;28;21234;-60
2023/08/11 04:41:16;;;;;;;12.20;7.97;;;;;;;;;;5029499;28;20235;-60
2023/08/11 04:43:41;;;;;;;12.15;8.25;;;;;;;;;;5027449;28;20607;-60
2023/08/11 04:46:06;;;;;;;10.77;7.80;;;;;;;;;;5028239;28;20683;-60
2023/08/11 04:48:32;;;;;;;10.13;7.75;;;;;;;;;;5029520;28;20235;-60
2023/08/11 04:50:58;;;;;;;10.48;7.55;;;;;;;;;;5028365;28;20314;-60
2023/08/11 04:53:24;;;;;;;22.42;7.88;;;;;;;;;;5026856;28;20270;-60
2023/08/11 04:55:51;;;;;;;9.98;7.57;;;;;;;;;;5029594;28;20208;-60
2023/08/11 04:58:16;;;;;;;12.13;7.30;;;;;;;;;;5028705;28;20250;-60
2023/08/11 05:00:42;;;;;;;9.05;6.35;;;;;;;;;;5026350;28;20231;-59
2023/08/11 05:03:08;;;;;;;8.65;6.25;;;;;;;;;;5028592;28;20617;-59
2023/08/11 05:05:34;;;;;;;8.77;5.80;;;;;;;;;;5029016;28;20208;-60
2023/08/11 05:07:59;;;;;;;10.93;6.32;;;;;;;;;;5026759;28;20269;-60
2023/08/11 05:10:24;;;;;;;10.43;6.50;;;;;;;;;;5026720;28;20216;-60
2023/08/11 05:12:50;;;;;;;11.90;6.38;;;;;;;;;;5028965;28;20695;-60
2023/08/11 05:15:15;;;;;;;10.02;6.47;;;;;;;;;;5027241;28;20576;-60
2023/08/11 05:17:40;;;;;;;9.35;6.38;;;;;;;;;;5027462;28;20567;-60
2023/08/11 05:20:07;;;;;;;9.02;6.28;;;;;;;;;;5028188;28;20246;-60
2023/08/11 05:22:33;;;;;;;10.70;6.22;;;;;;;;;;5027978;28;20211;-60
2023/08/11 05:24:58;;;;;;;10.38;6.20;;;;;;;;;;5026557;28;20226;-60
2023/08/11 05:27:24;;;;;;;7.50;5.65;;;;;;;;;;5027848;28;20223;-60
2023/08/11 05:29:50;;;;;;;8.93;5.72;;;;;;;;;;5028743;28;20216;-59
2023/08/11 05:32:15;;;;;;;9.07;6.30;;;;;;;;;;5026468;28;20203;-59
2023/08/11 05:34:40;;;;;;;8.50;5.85;;;;;;;;;;5027112;28;20212;-59
2023/08/11 05:37:06;;;;;;;10.40;5.47;;;;;;;;;;5028068;28;20223;-59
2023/08/11 05:39:32;;;;;;;10.98;5.55;;;;;;;;;;5028093;28;20234;-59
2023/08/11 05:41:57;;;;;;;8.60;6.03;;;;;;;;;;5025744;28;20208;-60
2023/08/11 05:44:23;;;;;;;9.57;6.35;;;;;;;;;;5028415;28;20850;-59
2023/08/11 05:46:48;;;;;;;14.13;6.72;;;;;;;;;;5028622;28;20223;-59
2023/08/11 05:49:13;;;;;;;9.82;6.57;;;;;;;;;;5025327;28;20579;-59
2023/08/11 05:51:39;;;;;;;9.43;6.22;;;;;;;;;;5028301;28;20223;-59
2023/08/11 05:54:04;;;;;;;8.10;5.75;;;;;;;;;;5027888;28;20261;-60
2023/08/11 05:56:29;;;;;;;9.77;6.00;;;;;;;;;;5026791;28;20302;-60
2023/08/11 05:58:55;;;;;;;11.70;6.60;;;;;;;;;;5026967;28;20562;-59
2023/08/11 06:01:20;;;;;;;9.63;5.93;;;;;;;;;;5028137;28;20255;-60
2023/08/11 06:03:45;;;;;;;10.73;6.35;;;;;;;;;;5027288;28;20303;-59
2023/08/11 06:06:11;;;;;;;7.82;5.88;;;;;;;;;;5025591;28;20260;-60
2023/08/11 06:08:36;;;;;;;12.40;6.40;;;;;;;;;;5028419;28;20573;-60
2023/08/11 06:11:01;;;;;;;9.93;6.45;;;;;;;;;;5027452;28;20561;-60
2023/08/11 06:13:27;;;;;;;11.52;7.00;;;;;;;;;;5026130;28;20279;-60
2023/08/11 06:15:52;;;;;;;10.13;6.78;;;;;;;;;;5027859;28;20212;-60
2023/08/11 06:18:17;;;;;;;9.85;7.07;;;;;;;;;;5028387;28;20224;-60
2023/08/11 06:20:43;;;;;;;8.95;6.90;;;;;;;;;;5031676;28;20211;-60
2023/08/11 06:23:08;;;;;;;10.02;6.50;;;;;;;;;;5030167;28;20208;-60
2023/08/11 06:25:34;;;;;;;9.20;6.70;;;;;;;;;;5031637;28;20208;-60
2023/08/11 06:27:59;;;;;;;8.52;6.78;;;;;;;;;;5032359;28;20753;-60
2023/08/11 06:30:27;;;;;;;11.25;7.20;;;;;;;;;;5029268;28;20222;-60
2023/08/11 06:32:53;;;;;;;9.05;6.72;;;;;;;;;;5023039;28;20220;-60
2023/08/11 06:35:18;;;;;;;8.68;6.47;;;;;;;;;;5031604;28;20628;-60
2023/08/11 06:37:44;;;;;;;10.10;7.05;;;;;;;;;;5029795;28;20682;-60
2023/08/11 06:40:11;;;;;;;9.48;7.07;;;;;;;;;;5030548;28;20235;-60
2023/08/11 06:42:36;;;;;;;10.05;6.07;;;;;;;;;;5032138;28;20318;-60
2023/08/11 06:45:02;;;;;;;9.02;6.75;;;;;;;;;;5030143;28;20324;-60
2023/08/11 06:47:29;;;;;;;10.13;6.35;;;;;;;;;;5030131;28;20211;-60
2023/08/11 06:49:54;;;;;;;8.93;7.07;;;;;;;;;;5031996;28;20215;-60
2023/08/11 06:52:19;;;;;;;13.10;7.07;;;;;;;;;;5030674;28;20219;-60
2023/08/11 06:54:45;;;;;;;10.23;6.82;;;;;;;;;;5029552;28;20214;-60
2023/08/11 06:57:10;;;;;;;10.27;6.68;;;;;;;;;;5031043;28;20235;-60
2023/08/11 06:59:35;;;;;;;9.55;7.00;;;;;;;;;;5030965;28;20235;-60
2023/08/11 07:02:01;;;;;;;10.00;7.32;;;;;;;;;;5030090;28;20212;-61
2023/08/11 07:04:26;;;;;;;10.68;7.60;;;;;;;;;;5030504;28;20211;-60
2023/08/11 07:06:51;;;;;;;9.48;7.28;;;;;;;;;;5030865;28;20223;-60
2023/08/11 07:09:17;;;;;;;10.00;7.50;;;;;;;;;;5030769;28;20565;-60
2023/08/11 07:11:42;;;;;;;9.80;7.88;;;;;;;;;;5029029;28;20216;-60
2023/08/11 07:14:07;;;;;;;11.73;8.02;;;;;;;;;;5030024;28;20216;-60
2023/08/11 07:16:33;;;;;;;10.23;7.60;;;;;;;;;;5031492;28;20294;-59
2023/08/11 07:18:58;;;;;;;11.15;7.75;;;;;;;;;;5029267;28;20282;-60
2023/08/11 07:21:23;;;;;;;11.70;7.93;;;;;;;;;;5029651;28;20204;-60
2023/08/11 07:23:49;;;;;;;9.80;6.53;;;;;;;;;;5031061;28;20354;-60
2023/08/11 07:26:14;;;;;;;10.82;7.20;;;;;;;;;;5029874;28;20216;-60
2023/08/11 07:28:40;;;;;;;11.90;7.25;;;;;;;;;;5029034;28;20222;-60
2023/08/11 07:31:05;;;;;;;11.70;7.18;;;;;;;;;;5030751;28;20850;-60
2023/08/11 07:33:31;;;;;;;8.43;6.57;;;;;;;;;;5031151;28;20222;-60
2023/08/11 07:35:56;;;;;;;11.45;6.70;;;;;;;;;;5027509;28;20224;-60
2023/08/11 07:38:22;;;;;;;12.18;6.18;;;;;;;;;;5030269;28;20232;-59
2023/08/11 07:40:47;;;;;;;11.48;7.10;;;;;;;;;;5030602;28;20361;-60
2023/08/11 07:43:12;;;;;;;9.63;6.80;;;;;;;;;;5027994;28;20270;-60
2023/08/11 07:45:38;;;;;;;9.98;6.80;;;;;;;;;;5030114;28;20215;-60
2023/08/11 07:48:03;;;;;;;10.90;7.38;;;;;;;;;;5029706;28;20305;-60
2023/08/11 07:50:29;;;;;;;11.07;7.43;;;;;;;;;;5030040;28;20350;-60
2023/08/11 07:52:54;;;;;;;8.93;6.60;;;;;;;;;;5029048;28;20689;-60
2023/08/11 07:55:20;;;;;;;11.30;7.25;;;;;;;;;;5029500;28;21058;-60
2023/08/11 07:57:45;;;;;;;12.40;6.55;;;;;;;;;;5030573;28;20285;-60
2023/08/11 08:00:16;;;;;;;12.15;7.07;;;;;;;;;;5027513;28;20236;-60
2023/08/11 08:02:41;;;;;;;12.05;6.97;;;;;;;;;;5029619;28;20318;-60
2023/08/11 08:05:07;;;;;;;11.57;7.28;;;;;;;;;;5030108;28;20294;-60
2023/08/11 08:07:32;;;;;;;10.40;6.40;;;;;;;;;;5029369;28;20675;-59
2023/08/11 08:09:57;;;;;;;9.73;6.50;;;;;;;;;;5028470;28;20208;-60
2023/08/11 08:12:23;;;;;;;10.77;7.22;;;;;;;;;;5029562;28;20239;-60
2023/08/11 08:14:48;;;;;;;8.80;6.03;;;;;;;;;;5029858;28;20219;-60
2023/08/11 08:17:13;;;;;;;12.43;6.20;;;;;;;;;;5027214;28;20215;-60
2023/08/11 08:19:39;;;;;;;9.18;6.50;;;;;;;;;;5030210;28;20238;-59
2023/08/11 08:22:04;;;;;;;12.10;6.80;;;;;;;;;;5029823;28;20224;-60
2023/08/11 08:24:29;;;;;;;11.45;6.78;;;;;;;;;;5027307;28;20682;-60
2023/08/11 08:26:55;;;;;;;11.30;6.80;;;;;;;;;;5032941;28;20219;-60
2023/08/11 08:29:20;;;;;;;15.38;7.15;;;;;;;;;;5029652;28;20227;-59
2023/08/11 08:31:46;;;;;;;11.05;7.00;;;;;;;;;;5029552;28;20218;-60
2023/08/11 08:34:11;;;;;;;9.82;5.57;;;;;;;;;;5027075;28;20693;-60
2023/08/11 08:36:36;;;;;;;11.43;6.40;;;;;;;;;;5029529;28;20633;-60
2023/08/11 08:39:02;;;;;;;9.50;6.75;;;;;;;;;;5028935;28;20809;-61
2023/08/11 08:41:29;;;;;;;12.38;6.10;;;;;;;;;;5026897;28;20219;-60
2023/08/11 08:43:54;;;;;;;10.18;6.45;;;;;;;;;;5028696;28;20219;-60
2023/08/11 08:46:20;;;;;;;9.93;6.00;;;;;;;;;;5028599;28;20873;-60
2023/08/11 08:49:08;;;;;;;10.88;6.25;;;;;;;;;;5029281;28;20215;-60
2023/08/11 08:51:33;;;;;;;11.63;5.47;;;;;;;;;;5026394;28;20228;-60
2023/08/11 08:53:59;;;;;;;9.55;5.88;;;;;;;;;;5029078;28;20298;-60
2023/08/11 08:56:24;;;;;;;10.60;5.65;;;;;;;;;;5027655;28;20239;-60
2023/08/11 08:58:50;;;;;;;9.60;5.47;;;;;;;;;;5027512;28;20387;-60
2023/08/11 09:01:15;;;;;;;8.70;5.93;;;;;;;;;;5026269;28;20262;-60
2023/08/11 09:03:40;;;;;;;10.95;6.32;;;;;;;;;;5008019;28;20210;-60
2023/08/11 09:06:06;;;;;;;10.93;6.15;;;;;;;;;;5027865;28;20314;-59
2023/08/11 09:08:31;;;;;;;9.82;5.45;;;;;;;;;;5026920;28;20208;-59
2023/08/11 09:10:57;;;;;;;9.48;5.63;;;;;;;;;;5029206;28;20306;-59
2023/08/11 09:13:22;;;;;;;7.88;4.72;;;;;;;;;;5027802;28;20559;-60
2023/08/11 09:15:47;;;;;;;8.90;5.10;;;;;;;;;;5027240;28;20247;-59
2023/08/11 09:18:14;;;;;;;8.90;5.15;;;;;;;;;;5028090;28;20269;-60
2023/08/11 09:20:39;;;;;;;7.30;4.88;;;;;;;;;;5028144;28;20713;-60
2023/08/11 09:23:05;;;;;;;8.27;4.70;;;;;;;;;;5027205;28;20207;-59
2023/08/11 09:25:31;;;;;;;9.98;4.68;;;;;;;;;;5027135;28;20212;-59
2023/08/11 09:27:58;;;;;;;10.48;4.70;;;;;;;;;;5027914;28;20548;-59
2023/08/11 09:30:23;;;;;;;6.93;4.70;;;;;;;;;;5028369;28;20219;-59
2023/08/11 09:32:49;;;;;;;8.93;4.60;;;;;;;;;;5026546;28;20207;-59
2023/08/11 09:35:14;;;;;;;10.52;4.75;;;;;;;;;;5027543;28;20223;-60
2023/08/11 09:37:42;;;;;;;6.88;3.90;;;;;;;;;;5028662;28;20256;-59
2023/08/11 09:40:08;;;;;;;7.47;4.10;;;;;;;;;;5026359;28;20231;-60
2023/08/11 09:42:33;;;;;;;7.38;4.22;;;;;;;;;;5026486;28;20216;-60
2023/08/11 09:44:59;;;;;;;7.20;4.20;;;;;;;;;;5028611;28;20582;-59
2023/08/11 09:47:24;;;;;;;7.93;4.38;;;;;;;;;;5027671;28;20589;-59
2023/08/11 09:49:49;;;;;;;8.35;4.00;;;;;;;;;;5036745;28;20227;-59
2023/08/11 09:52:15;;;;;;;9.95;4.22;;;;;;;;;;5027316;28;20216;-59
2023/08/11 09:54:40;;;;;;;6.45;3.88;;;;;;;;;;5027645;28;20220;-59
2023/08/11 09:57:06;;;;;;;7.35;3.75;;;;;;;;;;5025734;28;20204;-60
2023/08/11 09:59:31;;;;;;;8.13;4.28;;;;;;;;;;5026639;28;20227;-60
2023/08/11 10:01:57;;;;;;;8.10;4.05;;;;;;;;;;5027428;28;20210;-59
2023/08/11 10:04:23;;;;;;;8.52;3.45;;;;;;;;;;5028447;28;20224;-59
2023/08/11 10:06:50;;;;;;;8.85;4.00;;;;;;;;;;5030121;28;20311;-59
2023/08/11 10:09:15;;;;;;;8.05;3.45;;;;;;;;;;5026096;28;20659;-59
2023/08/11 10:11:41;;;;;;;8.52;3.70;;;;;;;;;;5026086;28;20212;-59
2023/08/11 10:14:06;;;;;;;7.47;3.83;;;;;;;;;;5027164;28;20211;-59
2023/08/11 10:16:32;;;;;;;7.75;3.47;;;;;;;;;;5026671;28;20215;-59
2023/08/11 10:18:58;;;;;;;8.57;4.25;;;;;;;;;;5025222;28;20254;-59
2023/08/11 10:21:24;;;;;;;6.95;3.58;;;;;;;;;;5027755;28;20239;-60
2023/08/11 10:23:50;;;;;;;9.85;3.50;;;;;;;;;;5027401;28;20234;-59
2023/08/11 10:26:15;;;;;;;8.07;3.90;;;;;;;;;;5024146;28;20247;-59
2023/08/11 10:28:40;;;;;;;7.03;3.85;;;;;;;;;;5029743;28;20620;-59
2023/08/11 10:31:06;;;;;;;6.93;3.78;;;;;;;;;;5028498;28;20306;-60
2023/08/11 10:33:31;;;;;;;6.25;3.65;;;;;;;;;;5025823;28;20211;-59
2023/08/11 10:35:58;;;;;;;5.20;3.35;;;;;;;;;;5028303;28;20220;-59
2023/08/11 10:38:24;;;;;;;9.75;3.78;;;;;;;;;;5026841;28;20215;-59
2023/08/11 10:40:49;;;;;;;5.70;3.40;;;;;;;;;;5026170;28;20216;-59
2023/08/11 10:43:15;;;;;;;7.90;3.08;;;;;;;;;;5026713;28;20211;-59
2023/08/11 10:45:40;;;;;;;7.45;3.55;;;;;;;;;;5027473;28;20216;-59
2023/08/11 10:48:06;;;;;;;7.00;3.10;;;;;;;;;;5026405;28;20222;-60
2023/08/11 10:50:32;;;;;;;6.75;2.90;;;;;;;;;;5026526;28;20253;-59
2023/08/11 10:53:05;;;;;;;5.75;3.30;;;;;;;;;;5027189;28;20204;-59
2023/08/11 10:55:33;;;;;;;5.18;2.88;;;;;;;;;;5027648;28;20224;-59
2023/08/11 10:58:08;;;;;;;9.15;3.60;;;;;;;;;;5024445;28;20241;-59
2023/08/11 11:00:34;;;;;;;9.40;4.13;;;;;;;;;;5026665;28;20231;-59
2023/08/11 11:02:59;;;;;;;5.03;3.08;;;;;;;;;;5027828;28;20659;-59
2023/08/11 11:05:25;;;;;;;8.05;3.42;;;;;;;;;;5028329;28;20244;-59
2023/08/11 11:07:51;;;;;;;7.40;3.08;;;;;;;;;;5029712;28;20227;-59
2023/08/11 11:10:17;;;;;;;5.85;2.95;;;;;;;;;;5031235;28;20703;-59
2023/08/11 11:12:42;;;;;;;6.28;3.53;;;;;;;;;;5030530;28;20247;-59
2023/08/11 11:15:07;;;;;;;7.07;3.00;;;;;;;;;;5028334;28;20232;-60
2023/08/11 11:17:33;;;;;;;6.78;2.80;;;;;;;;;;5031391;28;20212;-59
2023/08/11 11:19:58;;;;;;;5.45;3.10;;;;;;;;;;5030566;28;20258;-59
2023/08/11 11:22:23;;;;;;;8.48;3.03;;;;;;;;;;5027988;28;20243;-59
2023/08/11 11:24:49;;;;;;;7.43;3.47;;;;;;;;;;5030369;28;20216;-59
2023/08/11 11:27:14;;;;;;;7.20;3.40;;;;;;;;;;5030089;28;20326;-59
2023/08/11 11:29:39;;;;;;;6.05;3.30;;;;;;;;;;5030712;28;20203;-59
2023/08/11 11:32:06;;;;;;;6.15;3.20;;;;;;;;;;5028607;28;20558;-59
2023/08/11 11:34:33;;;;;;;6.15;2.90;;;;;;;;;;5030122;28;20227;-59
2023/08/11 11:36:59;;;;;;;7.43;3.40;;;;;;;;;;5030937;28;20258;-59
2023/08/11 11:39:25;;;;;;;8.43;3.53;;;;;;;;;;5028378;28;20230;-59
2023/08/11 11:41:50;;;;;;;7.90;2.95;;;;;;;;;;5029797;28;20220;-59
2023/08/11 11:44:15;;;;;;;6.78;3.00;;;;;;;;;;5030167;28;20200;-59
2023/08/11 11:46:42;;;;;;;6.22;3.22;;;;;;;;;;5028332;28;20350;-59
2023/08/11 11:49:07;;;;;;;5.00;3.03;;;;;;;;;;5026650;28;20294;-59
2023/08/11 11:51:32;;;;;;;5.35;2.75;;;;;;;;;;5030970;28;20286;-59
2023/08/11 11:53:59;;;;;;;6.40;2.70;;;;;;;;;;5029219;28;20220;-59
2023/08/11 11:56:26;;;;;;;8.27;2.80;;;;;;;;;;5027309;28;20697;-59
2023/08/11 11:58:51;;;;;;;5.28;2.78;;;;;;;;;;5030442;28;20219;-59
2023/08/11 12:01:17;;;;;;;5.93;2.70;;;;;;;;;;5028089;28;20227;-59
2023/08/11 12:03:43;;;;;;;5.15;2.47;;;;;;;;;;5028822;28;20234;-59
2023/08/11 12:06:08;;;;;;;4.72;2.78;;;;;;;;;;5029266;28;20227;-59
2023/08/11 12:08:35;;;;;;;3.05;2.13;;;;;;;;;;5029895;28;20321;-59
2023/08/11 12:11:01;;;;;;;5.07;2.05;;;;;;;;;;5029682;28;20212;-59
2023/08/11 12:13:26;;;;;;;4.95;1.83;;;;;;;;;;5028236;28;21320;-59
2023/08/11 12:15:51;;;;;;;5.18;2.08;;;;;;;;;;5028470;28;20274;-59
2023/08/11 12:18:17;;;;;;;5.18;2.10;;;;;;;;;;5029419;28;20220;-59
2023/08/11 12:20:42;;;;;;;4.55;2.20;;;;;;;;;;5026219;28;20285;-59
2023/08/11 12:23:07;;;;;;;5.75;2.13;;;;;;;;;;5027252;28;20353;-59
2023/08/11 12:25:33;;;;;;;4.82;2.25;;;;;;;;;;5030242;28;20218;-59
2023/08/11 12:28:01;;;;;;;4.25;2.50;;;;;;;;;;5028780;28;20307;-59
2023/08/11 12:30:26;;;;;;;6.38;2.45;;;;;;;;;;5027794;28;20208;-59
2023/08/11 12:32:52;;;;;;;4.47;2.70;;;;;;;;;;5029774;28;20481;-59
2023/08/11 12:35:17;;;;;;;8.48;2.95;;;;;;;;;;5029017;28;20211;-60
2023/08/11 12:37:42;;;;;;;4.15;2.53;;;;;;;;;;5026984;28;20597;-59
2023/08/11 12:40:09;;;;;;;5.72;2.30;;;;;;;;;;5029208;28;20575;-60
2023/08/11 12:42:35;;;;;;;5.30;2.40;;;;;;;;;;5029571;28;20208;-59
2023/08/11 12:45:01;;;;;;;4.18;2.17;;;;;;;;;;5026416;28;20216;-61
2023/08/11 12:47:26;;;;;;;5.13;2.30;;;;;;;;;;5029011;28;20581;-59
2023/08/11 12:49:52;;;;;;;5.10;2.30;;;;;;;;;;5029781;28;20216;-59
2023/08/11 12:52:17;;;;;;;6.00;2.20;;;;;;;;;;5027527;28;20208;-59
2023/08/11 12:54:43;;;;;;;4.35;2.30;;;;;;;;;;5028206;28;20864;-59
2023/08/11 12:57:08;;;;;;;3.03;2.40;;;;;;;;;;5029161;28;20220;-60
2023/08/11 12:59:33;;;;;;;4.30;2.20;;;;;;;;;;5028521;28;20230;-59
2023/08/11 13:01:59;;;;;;;4.40;2.00;;;;;;;;;;5026980;28;20219;-59
2023/08/11 13:04:24;;;;;;;3.90;1.88;;;;;;;;;;5028173;28;20715;-59
2023/08/11 13:06:49;;;;;;;5.50;2.20;;;;;;;;;;5029143;28;20235;-59
2023/08/11 13:09:15;;;;;;;5.35;2.08;;;;;;;;;;5027269;28;20259;-59
2023/08/11 13:11:41;;;;;;;8.45;2.38;;;;;;;;;;5027825;28;20593;-59
2023/08/11 13:14:07;;;;;;;7.20;2.30;;;;;;;;;;5027943;28;20274;-60
2023/08/11 13:16:34;;;;;;;5.00;2.20;;;;;;;;;;5028332;28;20682;-59
2023/08/11 13:18:59;;;;;;;5.13;2.42;;;;;;;;;;5026470;28;20258;-59
2023/08/11 13:21:25;;;;;;;5.50;2.38;;;;;;;;;;5028539;28;20215;-59
2023/08/11 13:23:50;;;;;;;5.00;2.10;;;;;;;;;;5029084;28;20334;-59
2023/08/11 13:26:16;;;;;;;4.57;2.30;;;;;;;;;;5025391;28;20265;-59
2023/08/11 13:28:41;;;;;;;4.80;2.25;;;;;;;;;;5028512;28;20208;-59
2023/08/11 13:31:06;;;;;;;6.22;2.50;;;;;;;;;;5026983;28;20266;-60
2023/08/11 13:33:32;;;;;;;3.80;2.10;;;;;;;;;;5008077;28;20707;-59
2023/08/11 13:35:57;;;;;;;6.05;2.60;;;;;;;;;;5004499;28;20232;-59
2023/08/11 13:38:23;;;;;;;14.93;2.85;;;;;;;;;;5002601;28;20212;-59
2023/08/11 13:40:48;;;;;;;4.88;2.50;;;;;;;;;;5009131;28;20232;-59
2023/08/11 13:43:14;;;;;;;5.43;2.25;;;;;;;;;;5012243;28;20622;-59
2023/08/11 13:45:39;;;;;;;7.15;2.42;;;;;;;;;;5009661;28;20916;-59
2023/08/11 13:48:05;;;;;;;4.70;2.25;;;;;;;;;;5008029;28;20228;-59
2023/08/11 13:50:30;;;;;;;4.28;2.30;;;;;;;;;;5011910;28;20212;-59
2023/08/11 13:52:55;;;;;;;6.38;2.28;;;;;;;;;;5010595;28;20226;-59
2023/08/11 13:55:20;;;;;;;4.95;2.22;;;;;;;;;;5005838;28;20593;-59
2023/08/11 13:57:47;;;;;;;3.97;2.22;;;;;;;;;;5004193;28;20212;-59
2023/08/11 14:00:13;;;;;;;6.75;2.42;;;;;;;;;;5007017;28;20228;-59
2023/08/11 14:02:38;;;;;;;4.00;2.30;;;;;;;;;;5004533;28;20261;-59
2023/08/11 14:05:04;;;;;;;3.72;2.25;;;;;;;;;;5009307;28;20250;-59
2023/08/11 14:07:29;;;;;;;4.25;2.15;;;;;;;;;;5012939;28;20669;-59
2023/08/11 14:09:55;;;;;;;4.30;2.20;;;;;;;;;;5008443;28;20228;-59
2023/08/11 14:12:21;;;;;;;3.58;2.20;;;;;;;;;;5010027;28;20232;-59
2023/08/11 14:14:47;;;;;;;3.78;2.40;;;;;;;;;;5010787;28;20626;-59
2023/08/11 14:17:12;;;;;;;4.55;2.00;;;;;;;;;;5009217;28;20536;-59
2023/08/11 14:19:37;;;;;;;5.70;2.40;;;;;;;;;;5001205;28;20328;-59
2023/08/11 14:22:03;;;;;;;4.25;2.30;;;;;;;;;;5002871;28;20563;-60
2023/08/11 14:24:28;;;;;;;5.00;2.60;;;;;;;;;;5003972;28;20839;-59
2023/08/11 14:26:53;;;;;;;4.78;2.30;;;;;;;;;;5009027;28;20630;-59
2023/08/11 14:29:19;;;;;;;3.10;2.20;;;;;;;;;;5008706;28;20303;-59